Aviation Digital Data Service (ADDS)

Output produced by METARs form (1555 UTC 23 April 2017)
found at http://www.aviationweather.gov/adds/metars/
 
BKPR 231530Z 17005KT 9999 SCT025 BKN060 06/02 Q1020 NOSIG
TAF BKPR 231130Z 2312/2412 35010KT 9999 SCT040 BKN060 
     PROB40 
     TEMPO 2312/2318 35015G25KT 5000 -RA BR